Ana Sayfa
METAR-TAF:

METAR-TAF

Havaalanları :

Columbia, Missouri, Amerika Birleşik Devletleri

Enlem: 38-49-01N, Boylam: 092-13-06W, yükseklik: 271 m

Güncel hava durumu gözlemi

Rapor saat 22:54 UTC de 21 dakika önce yapıldı.
Rüzgar güneydoğudan 8 kt
Sıcaklık 31°C
Nem 49%
Basınç 1023 hPa
Görüş mesafesi: 16.1 km
5000 ft yükseklikte az bulutlu

METAR: KCOU 202254Z 14008KT 10SM FEW050 31/19 A3021 RMK AO2 SLP220 T03110194 $

Saat: 18:15 (23:15 UTC)

Tahmin

Rapor saat 17:20 UTC de 5 saat ve 55 dakika önce yapıldı.
Ayın 20'si saat 18 UTC'den ayın 21'si saat 18 UTC'ye kadar geçerli Tahmin
Rüzgar güney/güneybatıdan 6 kt
Görüş mesafesi: 10 km
6000 ft yükseklikte parçalı bulutlu
Ayın 21'si saat 0100 UTC'den
Rüzgar güneydan 4 kt
Görüş mesafesi: 10 km
20000 ft yükseklikte az bulutlu

TAF: KCOU 201720Z 2018/2118 20006KT P6SM SCT060 FM210100 17004KT P6SM FEW200

4.000'den fazla havaalanı için hava durumu gözlemleri ve tahminleri (METAR ve TAF raporları).

Kullanılabilir istasyonlar harita üzerinde sarı ve kırmızı noktalarla gösterilir.

İstasyonun adını görmek için fareyi noktanın üzerinde gezdirin.

Sonrasında hava gözlem ve tahminlerini görmek için tıklayın.

Haritayı değiştirmek için: yaklaştırmak için siyah artı işaretli yeşil düğmeye ve uzaklaştırmak için de eksi işaretli düğmeye hızla tıklayın; bitişik haritalar için yeşil okları kullanın.


METAR-TAF: